createdAt,value
2018-06-29T00:00:38.106Z,27.27
2018-06-29T00:03:08.451Z,27.27
2018-06-29T00:05:39.262Z,24.53
2018-06-29T00:08:10.547Z,26.37
2018-06-29T00:10:41.398Z,23.27
2018-06-29T00:13:12.653Z,22.97
2018-06-29T00:15:43.644Z,23.47
2018-06-29T00:18:15.358Z,26.43
2018-06-29T00:20:46.168Z,27.47
2018-06-29T00:23:17.076Z,24.47
2018-06-29T00:25:48.031Z,20.77
2018-06-29T00:28:18.720Z,23.60
2018-06-29T00:30:49.634Z,22.23
2018-06-29T00:33:20.430Z,23.23
2018-06-29T00:35:51.206Z,21.07
2018-06-29T00:38:21.885Z,24.00
2018-06-29T00:40:52.915Z,25.53
2018-06-29T00:43:23.515Z,20.30
2018-06-29T00:45:54.747Z,24.60
2018-06-29T00:48:25.214Z,20.63
2018-06-29T00:50:56.365Z,22.80
2018-06-29T00:53:27.048Z,25.60
2018-06-29T00:55:58.068Z,23.80
2018-06-29T00:58:28.808Z,27.87
2018-06-29T01:00:59.647Z,33.50
2018-06-29T01:03:30.330Z,34.27
2018-06-29T01:06:01.019Z,30.37
2018-06-29T01:08:31.149Z,28.43
2018-06-29T01:11:02.312Z,32.43
2018-06-29T01:13:33.421Z,32.23
2018-06-29T01:16:04.528Z,28.27
2018-06-29T01:18:35.300Z,34.53
2018-06-29T01:21:05.794Z,34.97
2018-06-29T01:23:37.168Z,33.23
2018-06-29T01:26:07.751Z,36.20
2018-06-29T01:28:38.366Z,40.00
2018-06-29T01:31:09.029Z,36.60
2018-06-29T01:33:39.717Z,30.63
2018-06-29T01:36:10.074Z,40.57
2018-06-29T01:38:40.613Z,34.87
2018-06-29T01:41:11.326Z,36.03
2018-06-29T01:43:41.953Z,36.37
2018-06-29T01:46:12.846Z,34.20
2018-06-29T01:48:43.357Z,33.70
2018-06-29T01:51:13.899Z,35.83
2018-06-29T01:53:44.755Z,33.77
2018-06-29T01:56:15.425Z,32.63
2018-06-29T01:58:46.202Z,30.50
2018-06-29T02:01:16.847Z,29.53
2018-06-29T02:03:47.821Z,32.00
2018-06-29T02:06:17.928Z,29.10
2018-06-29T02:08:48.897Z,30.87
2018-06-29T02:11:19.917Z,31.33
2018-06-29T02:13:50.547Z,32.87
2018-06-29T02:16:21.447Z,33.23
2018-06-29T02:18:52.107Z,30.90
2018-06-29T02:21:22.953Z,34.20
2018-06-29T02:23:53.704Z,30.57
2018-06-29T02:26:24.608Z,26.07
2018-06-29T02:28:55.289Z,27.07
2018-06-29T02:31:25.957Z,26.50
2018-06-29T02:33:56.621Z,28.47
2018-06-29T02:36:27.198Z,30.57
2018-06-29T02:38:57.831Z,25.37
2018-06-29T02:41:28.910Z,21.67
2018-06-29T02:43:59.526Z,22.27
2018-06-29T02:46:30.066Z,24.50
2018-06-29T02:49:01.472Z,23.43
2018-06-29T02:51:32.449Z,22.17
2018-06-29T02:54:03.157Z,22.80
2018-06-29T02:56:34.495Z,24.10
2018-06-29T02:59:05.320Z,26.33
2018-06-29T03:01:35.799Z,25.40
2018-06-29T03:04:06.919Z,25.10
2018-06-29T03:06:37.535Z,23.30
2018-06-29T03:09:09.726Z,27.30
2018-06-29T03:11:40.757Z,27.83
2018-06-29T03:14:11.675Z,25.03
2018-06-29T03:16:42.217Z,27.43
2018-06-29T03:19:12.838Z,26.57
2018-06-29T03:21:43.582Z,28.40
2018-06-29T03:24:13.658Z,22.93
2018-06-29T03:26:44.401Z,25.77
2018-06-29T03:29:15.047Z,24.20
2018-06-29T03:31:44.872Z,23.07
2018-06-29T03:34:14.678Z,20.43
2018-06-29T03:36:44.506Z,23.47
2018-06-29T03:39:14.307Z,16.17
2018-06-29T03:41:44.122Z,18.67
2018-06-29T03:44:14.173Z,14.27
2018-06-29T03:46:44.291Z,13.00
2018-06-29T03:49:14.442Z,12.27
2018-06-29T03:51:44.570Z,11.20
2018-06-29T03:54:14.400Z,11.30
2018-06-29T03:56:44.205Z,13.97
2018-06-29T03:59:13.984Z,13.73
2018-06-29T04:01:43.735Z,14.73
2018-06-29T04:04:13.611Z,15.07
2018-06-29T04:06:43.496Z,14.27
2018-06-29T04:09:13.581Z,15.67
2018-06-29T04:11:43.446Z,15.17
2018-06-29T04:14:13.276Z,17.60
2018-06-29T04:16:43.132Z,18.40
2018-06-29T04:19:12.919Z,20.53
2018-06-29T04:21:42.718Z,21.23
2018-06-29T04:24:12.565Z,19.87
2018-06-29T04:26:42.432Z,25.23
2018-06-29T04:29:12.254Z,22.57
2018-06-29T04:31:42.082Z,22.20
2018-06-29T04:34:12.131Z,21.03
2018-06-29T04:36:42.111Z,21.60
2018-06-29T04:39:12.731Z,24.80
2018-06-29T04:41:42.826Z,20.57
2018-06-29T04:44:12.758Z,21.53
2018-06-29T04:46:42.504Z,20.90
2018-06-29T04:49:12.280Z,17.87
2018-06-29T04:51:42.130Z,18.13
2018-06-29T04:54:11.960Z,16.27
2018-06-29T04:56:41.790Z,16.10
2018-06-29T04:59:11.711Z,15.97
2018-06-29T05:01:41.499Z,15.53
2018-06-29T05:04:11.395Z,14.20
2018-06-29T05:06:41.188Z,14.47
2018-06-29T05:09:10.968Z,12.03
2018-06-29T05:11:40.775Z,11.50
2018-06-29T05:14:10.629Z,10.50
2018-06-29T05:16:40.620Z,11.80
2018-06-29T05:19:10.616Z,11.03
2018-06-29T05:21:40.603Z,13.43
2018-06-29T05:24:10.471Z,11.30
2018-06-29T05:26:40.256Z,7.20
2018-06-29T05:29:10.010Z,7.17
2018-06-29T05:31:39.906Z,8.77
2018-06-29T05:34:09.748Z,7.37
2018-06-29T05:36:39.533Z,7.43
2018-06-29T05:39:10.878Z,6.10
2018-06-29T05:41:40.953Z,5.60
2018-06-29T05:44:10.914Z,4.47
2018-06-29T05:46:40.745Z,4.20
2018-06-29T05:49:10.827Z,5.23
2018-06-29T05:51:40.624Z,4.57
2018-06-29T05:54:10.389Z,4.90
2018-06-29T05:56:40.425Z,4.73
2018-06-29T05:59:10.529Z,4.20
2018-06-29T06:01:40.504Z,3.97
2018-06-29T06:04:10.646Z,5.27
2018-06-29T06:06:40.544Z,3.20
2018-06-29T06:09:11.808Z,3.83
2018-06-29T06:11:41.947Z,3.90
2018-06-29T06:14:11.732Z,2.90
2018-06-29T06:16:41.546Z,3.00
2018-06-29T06:19:22.450Z,2.20
2018-06-29T06:21:52.670Z,2.33
2018-06-29T06:24:22.704Z,2.47
2018-06-29T06:26:52.607Z,3.33
2018-06-29T06:29:22.588Z,3.27
2018-06-29T06:31:52.535Z,4.40
2018-06-29T06:34:22.409Z,3.97
2018-06-29T06:36:52.541Z,2.60
2018-06-29T06:39:22.530Z,2.80
2018-06-29T06:41:52.697Z,3.10
2018-06-29T06:44:22.677Z,3.33
2018-06-29T06:46:52.572Z,2.50
2018-06-29T06:49:22.470Z,4.20
2018-06-29T06:51:52.282Z,2.77
2018-06-29T06:54:22.160Z,2.33
2018-06-29T06:56:52.145Z,2.97
2018-06-29T06:59:22.259Z,2.67
2018-06-29T07:01:52.136Z,2.30
2018-06-29T07:04:22.136Z,2.57
2018-06-29T07:06:51.913Z,2.70
2018-06-29T07:09:21.865Z,3.03
2018-06-29T07:11:51.648Z,3.50
2018-06-29T07:14:21.454Z,3.10
2018-06-29T07:16:51.299Z,5.33
2018-06-29T07:19:21.380Z,8.00
2018-06-29T07:21:51.487Z,6.90
2018-06-29T07:24:21.680Z,5.17
2018-06-29T07:26:51.500Z,5.50
2018-06-29T07:29:21.706Z,5.97
2018-06-29T07:31:51.757Z,5.43
2018-06-29T07:34:21.573Z,5.37
2018-06-29T07:36:51.454Z,4.60
2018-06-29T07:39:21.482Z,6.40
2018-06-29T07:41:51.508Z,3.53
2018-06-29T07:44:21.627Z,4.07
2018-06-29T07:46:51.445Z,3.90
2018-06-29T07:49:21.401Z,4.93
2018-06-29T07:51:51.156Z,6.63
2018-06-29T07:54:20.954Z,5.77
2018-06-29T07:56:50.944Z,4.50
2018-06-29T07:59:20.767Z,4.60
2018-06-29T08:01:50.369Z,4.97
2018-06-29T08:04:20.092Z,3.27
2018-06-29T08:06:49.667Z,4.27
2018-06-29T08:09:19.400Z,3.90
2018-06-29T08:11:48.955Z,3.07
2018-06-29T08:14:18.572Z,3.00
2018-06-29T08:16:48.429Z,4.27
2018-06-29T08:19:18.310Z,4.23
2018-06-29T08:21:48.200Z,4.10
2018-06-29T08:24:18.035Z,3.57
2018-06-29T08:26:47.599Z,4.27
2018-06-29T08:29:17.185Z,3.93
2018-06-29T08:31:46.757Z,4.90
2018-06-29T08:34:16.385Z,3.90
2018-06-29T08:36:46.155Z,4.13
2018-06-29T08:39:15.840Z,5.83
2018-06-29T08:41:45.556Z,4.57
2018-06-29T08:44:15.407Z,4.23
2018-06-29T08:46:45.038Z,4.10
2018-06-29T08:49:14.618Z,4.90
2018-06-29T08:51:44.182Z,5.87
2018-06-29T08:54:13.756Z,4.90
2018-06-29T08:56:43.485Z,4.20
2018-06-29T08:59:13.241Z,5.13
2018-06-29T09:01:42.700Z,4.03
2018-06-29T09:04:12.523Z,4.50
2018-06-29T09:06:42.142Z,4.37
2018-06-29T09:09:11.858Z,4.37
2018-06-29T09:11:41.526Z,4.93
2018-06-29T09:14:11.210Z,5.40
2018-06-29T09:16:40.934Z,5.97
2018-06-29T09:19:10.813Z,5.63
2018-06-29T09:21:40.558Z,6.03
2018-06-29T09:24:10.287Z,6.10
2018-06-29T09:26:39.890Z,7.33
2018-06-29T09:29:09.453Z,6.53
2018-06-29T09:31:39.012Z,6.53
2018-06-29T09:34:08.564Z,7.30
2018-06-29T09:36:38.377Z,6.30
2018-06-29T09:39:10.807Z,6.37
2018-06-29T09:41:40.895Z,6.10
2018-06-29T09:44:10.735Z,6.00
2018-06-29T09:46:40.334Z,7.27
2018-06-29T09:49:09.924Z,6.17
2018-06-29T09:51:39.494Z,6.37
2018-06-29T09:54:09.174Z,6.10
2018-06-29T09:56:38.931Z,6.40
2018-06-29T09:59:08.717Z,6.27
2018-06-29T10:01:38.325Z,5.70
2018-06-29T10:04:08.025Z,6.53
2018-06-29T10:06:37.541Z,12.90
2018-06-29T10:09:08.928Z,5.97
2018-06-29T10:11:38.520Z,6.90
2018-06-29T10:14:08.429Z,7.60
2018-06-29T10:16:38.018Z,6.17
2018-06-29T10:19:07.820Z,7.07
2018-06-29T10:21:37.753Z,7.53
2018-06-29T10:24:07.519Z,5.50
2018-06-29T10:26:37.199Z,6.17
2018-06-29T10:29:06.843Z,6.77
2018-06-29T10:31:36.431Z,5.20
2018-06-29T10:34:06.184Z,6.33
2018-06-29T10:36:35.742Z,5.93
2018-06-29T10:39:09.923Z,6.43
2018-06-29T10:41:39.958Z,6.20
2018-06-29T10:44:09.694Z,6.13
2018-06-29T10:46:40.040Z,5.33
2018-06-29T10:49:09.901Z,6.70
2018-06-29T10:51:39.499Z,8.57
2018-06-29T10:54:09.015Z,5.50
2018-06-29T10:56:39.414Z,4.77
2018-06-29T10:59:09.092Z,11.90
2018-06-29T11:01:38.904Z,6.77
2018-06-29T11:04:08.653Z,6.23
2018-06-29T11:06:38.350Z,5.27
2018-06-29T11:09:10.058Z,6.73
2018-06-29T11:11:39.636Z,6.87
2018-06-29T11:14:09.637Z,5.80
2018-06-29T11:16:39.455Z,6.63
2018-06-29T11:19:09.153Z,7.03
2018-06-29T11:21:39.043Z,6.10
2018-06-29T11:24:08.733Z,7.47
2018-06-29T11:26:38.344Z,7.63
2018-06-29T11:29:08.040Z,7.53
2018-06-29T11:31:37.655Z,7.13
2018-06-29T11:34:07.428Z,10.47
2018-06-29T11:36:37.247Z,6.77
2018-06-29T11:39:10.733Z,7.97
2018-06-29T11:41:40.752Z,5.90
2018-06-29T11:44:10.731Z,9.07
2018-06-29T11:46:40.335Z,6.10
2018-06-29T11:49:10.416Z,7.60
2018-06-29T11:51:40.020Z,6.47
2018-06-29T11:54:09.643Z,5.77
2018-06-29T11:56:39.488Z,5.67
2018-06-29T11:59:09.313Z,5.70
2018-06-29T12:01:39.158Z,7.37
2018-06-29T12:04:08.852Z,7.30
2018-06-29T12:06:38.462Z,6.73
2018-06-29T12:09:10.701Z,7.60
2018-06-29T12:11:40.582Z,6.93
2018-06-29T12:14:10.229Z,9.00
2018-06-29T12:16:40.121Z,8.37
2018-06-29T12:19:09.815Z,9.53
2018-06-29T12:21:39.585Z,7.03
2018-06-29T12:24:09.327Z,6.83
2018-06-29T12:26:38.890Z,6.87
2018-06-29T12:29:08.584Z,6.60
2018-06-29T12:31:38.425Z,5.80
2018-06-29T12:34:08.290Z,9.17
2018-06-29T12:36:38.213Z,8.70
2018-06-29T12:39:09.243Z,6.30
2018-06-29T12:41:39.905Z,4.93
2018-06-29T12:44:10.127Z,4.30
2018-06-29T12:46:39.980Z,4.90
2018-06-29T12:49:10.061Z,4.30
2018-06-29T12:51:39.930Z,4.47
2018-06-29T12:54:09.859Z,4.57
2018-06-29T12:56:39.961Z,4.40
2018-06-29T12:59:10.266Z,4.60
2018-06-29T13:01:40.443Z,4.47
2018-06-29T13:04:10.598Z,5.83
2018-06-29T13:06:40.394Z,5.00
2018-06-29T13:09:11.507Z,6.13
2018-06-29T13:11:41.371Z,3.93
2018-06-29T13:14:11.208Z,5.13
2018-06-29T13:16:41.250Z,5.37
2018-06-29T13:19:11.183Z,5.03
2018-06-29T13:21:41.411Z,4.87
2018-06-29T13:24:11.476Z,3.90
2018-06-29T13:26:41.562Z,2.80
2018-06-29T13:29:11.734Z,4.60
2018-06-29T13:31:41.609Z,2.70
2018-06-29T13:34:11.368Z,4.47
2018-06-29T13:36:41.408Z,2.47
2018-06-29T13:39:11.876Z,2.37
2018-06-29T13:41:41.839Z,5.97
2018-06-29T13:44:11.748Z,3.50
2018-06-29T13:46:41.506Z,2.73
2018-06-29T13:49:11.314Z,2.70
2018-06-29T13:51:41.130Z,3.93
2018-06-29T13:54:11.005Z,2.67
2018-06-29T13:56:40.727Z,2.57
2018-06-29T13:59:10.656Z,4.37
2018-06-29T14:01:40.697Z,1.77
2018-06-29T14:04:10.482Z,4.30
2018-06-29T14:06:40.246Z,3.73
2018-06-29T14:09:10.038Z,2.03
2018-06-29T14:11:39.816Z,3.00
2018-06-29T14:14:09.685Z,2.30
2018-06-29T14:16:39.641Z,3.60
2018-06-29T14:19:09.662Z,2.33
2018-06-29T14:21:39.714Z,2.67
2018-06-29T14:24:09.729Z,2.43
2018-06-29T14:26:39.538Z,3.70
2018-06-29T14:29:09.438Z,6.80
2018-06-29T14:31:39.260Z,2.83
2018-06-29T14:34:09.035Z,4.50
2018-06-29T14:36:39.053Z,2.37
2018-06-29T14:39:10.601Z,2.40
2018-06-29T14:41:40.746Z,3.00
2018-06-29T14:44:11.575Z,2.23
2018-06-29T14:46:41.366Z,3.03
2018-06-29T14:49:11.133Z,2.57
2018-06-29T14:51:41.123Z,2.43
2018-06-29T14:54:10.918Z,2.87
2018-06-29T14:56:40.661Z,3.60
2018-06-29T14:59:10.484Z,4.10
2018-06-29T15:01:40.346Z,2.20
2018-06-29T15:04:10.157Z,2.40
2018-06-29T15:06:40.024Z,2.50
2018-06-29T15:09:10.356Z,5.07
2018-06-29T15:11:40.183Z,3.20
2018-06-29T15:14:10.005Z,2.57
2018-06-29T15:16:39.814Z,2.13
2018-06-29T15:19:09.884Z,3.80
2018-06-29T15:21:39.852Z,3.30
2018-06-29T15:24:09.859Z,4.53
2018-06-29T15:26:39.657Z,3.03
2018-06-29T15:29:09.666Z,4.30
2018-06-29T15:31:39.491Z,4.77
2018-06-29T15:34:09.283Z,3.10
2018-06-29T15:36:39.265Z,3.10
2018-06-29T15:39:11.767Z,5.20
2018-06-29T15:41:41.912Z,4.30
2018-06-29T15:44:12.626Z,3.33
2018-06-29T15:46:42.958Z,4.37
2018-06-29T15:49:12.780Z,3.00
2018-06-29T15:51:42.599Z,4.73
2018-06-29T15:54:12.424Z,3.47
2018-06-29T15:56:42.195Z,3.33
2018-06-29T15:59:12.110Z,3.00
2018-06-29T16:01:42.004Z,3.80
2018-06-29T16:04:11.776Z,3.67
2018-06-29T16:06:41.591Z,3.57
2018-06-29T16:09:11.698Z,7.43
2018-06-29T16:11:41.533Z,4.10
2018-06-29T16:14:11.398Z,3.70
2018-06-29T16:16:41.204Z,4.53
2018-06-29T16:19:11.153Z,5.07
2018-06-29T16:21:41.062Z,7.13
2018-06-29T16:24:10.925Z,5.90
2018-06-29T16:26:40.742Z,6.17
2018-06-29T16:29:10.632Z,6.27
2018-06-29T16:31:40.392Z,7.57
2018-06-29T16:34:10.194Z,5.47
2018-06-29T16:36:40.430Z,7.03
2018-06-29T16:39:12.667Z,7.40
2018-06-29T16:41:42.819Z,5.33
2018-06-29T16:44:12.678Z,6.37
2018-06-29T16:46:42.471Z,7.30
2018-06-29T16:49:12.405Z,6.13
2018-06-29T16:51:42.269Z,8.40
2018-06-29T16:54:12.062Z,6.07
2018-06-29T16:56:41.829Z,8.33
2018-06-29T16:59:11.708Z,6.57
2018-06-29T17:01:41.584Z,7.47
2018-06-29T17:04:11.436Z,9.67
2018-06-29T17:06:41.227Z,9.30
2018-06-29T17:09:11.325Z,8.03
2018-06-29T17:11:41.111Z,8.27
2018-06-29T17:14:10.916Z,8.37
2018-06-29T17:16:40.813Z,6.73
2018-06-29T17:19:10.637Z,7.27
2018-06-29T17:21:40.460Z,6.47
2018-06-29T17:24:10.265Z,6.90
2018-06-29T17:26:40.096Z,7.60
2018-06-29T17:29:10.418Z,11.23
2018-06-29T17:31:40.277Z,11.43
2018-06-29T17:34:10.354Z,14.03
2018-06-29T17:36:40.305Z,10.07
2018-06-29T17:39:11.765Z,9.10
2018-06-29T17:41:41.702Z,8.70
2018-06-29T17:44:11.720Z,8.30
2018-06-29T17:46:41.556Z,9.10
2018-06-29T17:49:11.295Z,7.90
2018-06-29T17:51:41.169Z,7.80
2018-06-29T17:54:10.969Z,8.77
2018-06-29T17:56:41.100Z,10.90
2018-06-29T17:59:11.112Z,8.90
2018-06-29T18:01:41.139Z,8.27
2018-06-29T18:04:10.927Z,13.03
2018-06-29T18:06:40.747Z,9.80
2018-06-29T18:09:11.893Z,12.03
2018-06-29T18:11:41.733Z,11.80
2018-06-29T18:14:11.563Z,12.27
2018-06-29T18:16:41.520Z,12.50
2018-06-29T18:19:11.472Z,14.30
2018-06-29T18:21:41.520Z,13.63
2018-06-29T18:24:11.504Z,14.20
2018-06-29T18:26:41.289Z,13.77
2018-06-29T18:29:11.146Z,15.40
2018-06-29T18:31:41.125Z,14.07
2018-06-29T18:34:11.053Z,15.13
2018-06-29T18:36:40.910Z,13.70
2018-06-29T18:39:12.462Z,12.90
2018-06-29T18:41:42.424Z,15.93
2018-06-29T18:44:12.710Z,14.67
2018-06-29T18:46:42.502Z,13.90
2018-06-29T18:49:12.258Z,12.73
2018-06-29T18:51:42.137Z,10.87
2018-06-29T18:54:12.073Z,10.50
2018-06-29T18:56:42.022Z,11.57
2018-06-29T18:59:11.917Z,11.73
2018-06-29T19:01:41.825Z,13.10
2018-06-29T19:04:11.643Z,10.33
2018-06-29T19:06:41.425Z,13.40
2018-06-29T19:09:11.666Z,11.37
2018-06-29T19:11:41.414Z,11.93
2018-06-29T19:14:11.221Z,10.97
2018-06-29T19:16:41.049Z,12.10
2018-06-29T19:19:10.910Z,13.50
2018-06-29T19:21:40.816Z,13.17
2018-06-29T19:24:10.798Z,14.13
2018-06-29T19:26:40.694Z,15.33
2018-06-29T19:29:10.584Z,15.07
2018-06-29T19:31:40.399Z,17.80
2018-06-29T19:34:10.443Z,16.07
2018-06-29T19:36:40.225Z,17.47
2018-06-29T19:39:11.305Z,17.83
2018-06-29T19:41:42.014Z,20.03
2018-06-29T19:44:12.227Z,20.57
2018-06-29T19:46:42.003Z,19.30
2018-06-29T19:49:11.800Z,16.37
2018-06-29T19:51:41.596Z,20.77
2018-06-29T19:54:11.430Z,18.50
2018-06-29T19:56:41.281Z,20.87
2018-06-29T19:59:11.257Z,18.80
2018-06-29T20:01:41.283Z,19.87
2018-06-29T20:04:11.080Z,20.00
2018-06-29T20:06:40.969Z,20.57
2018-06-29T20:09:12.322Z,20.30
2018-06-29T20:11:42.204Z,18.03
2018-06-29T20:14:14.721Z,21.07
2018-06-29T20:16:44.892Z,17.27
2018-06-29T20:19:14.743Z,19.07
2018-06-29T20:21:44.666Z,18.00
2018-06-29T20:24:14.635Z,20.60
2018-06-29T20:26:44.450Z,19.23
2018-06-29T20:29:14.253Z,19.90
2018-06-29T20:31:44.219Z,18.53
2018-06-29T20:34:15.084Z,18.43
2018-06-29T20:36:45.868Z,19.03
2018-06-29T20:39:16.427Z,19.27
2018-06-29T20:41:47.121Z,18.50
2018-06-29T20:44:19.106Z,16.40
2018-06-29T20:46:49.333Z,14.10
2018-06-29T20:49:19.672Z,13.53
2018-06-29T20:51:50.187Z,14.77
2018-06-29T20:54:21.027Z,12.63
2018-06-29T20:56:51.720Z,11.77
2018-06-29T20:59:22.501Z,11.70
2018-06-29T21:01:53.049Z,10.67
2018-06-29T21:04:24.306Z,11.17
2018-06-29T21:06:54.841Z,9.53
2018-06-29T21:09:25.362Z,9.80
2018-06-29T21:11:55.480Z,8.27
2018-06-29T21:14:26.346Z,11.20
2018-06-29T21:16:58.138Z,10.13
2018-06-29T21:19:28.977Z,12.03
2018-06-29T21:21:59.575Z,12.03
2018-06-29T21:24:30.196Z,12.40
2018-06-29T21:27:00.522Z,13.13
2018-06-29T21:29:30.869Z,13.97
2018-06-29T21:32:01.435Z,13.57
2018-06-29T21:34:32.017Z,14.03
2018-06-29T21:37:02.610Z,11.27
2018-06-29T21:39:33.227Z,13.13
2018-06-29T21:42:03.874Z,9.03
2018-06-29T21:44:34.497Z,10.03
2018-06-29T21:47:04.895Z,10.83
2018-06-29T21:49:35.604Z,8.30
2018-06-29T21:52:06.813Z,7.57
2018-06-29T21:54:37.568Z,9.17
2018-06-29T21:57:09.257Z,9.77
2018-06-29T21:59:40.144Z,9.17
2018-06-29T22:02:10.822Z,9.20
2018-06-29T22:04:41.776Z,12.23
2018-06-29T22:07:12.482Z,9.83
2018-06-29T22:09:43.102Z,9.20
2018-06-29T22:12:13.899Z,9.20
2018-06-29T22:14:44.196Z,10.03
2018-06-29T22:17:15.007Z,10.97
2018-06-29T22:19:46.082Z,10.03
2018-06-29T22:22:16.713Z,10.83
2018-06-29T22:24:47.433Z,11.83
2018-06-29T22:27:18.149Z,13.40
2018-06-29T22:29:49.869Z,12.37
2018-06-29T22:32:20.544Z,10.20
2018-06-29T22:34:50.740Z,11.23
2018-06-29T22:37:21.191Z,9.37
2018-06-29T22:39:52.635Z,12.73
2018-06-29T22:42:23.655Z,10.73
2018-06-29T22:44:54.533Z,12.00
2018-06-29T22:47:25.074Z,11.90
2018-06-29T22:49:55.971Z,13.30
2018-06-29T22:52:26.759Z,11.87
2018-06-29T22:54:57.515Z,12.27
2018-06-29T22:57:28.247Z,15.87
2018-06-29T22:59:58.479Z,12.13
2018-06-29T23:02:29.144Z,12.93
2018-06-29T23:04:59.923Z,14.50
2018-06-29T23:07:30.715Z,12.77
2018-06-29T23:10:01.484Z,14.57
2018-06-29T23:12:31.967Z,12.67
2018-06-29T23:15:02.527Z,12.90
2018-06-29T23:17:33.386Z,11.47
2018-06-29T23:20:04.212Z,13.30
2018-06-29T23:22:34.993Z,14.30
2018-06-29T23:25:06.405Z,11.77
2018-06-29T23:27:37.056Z,11.23
2018-06-29T23:30:07.788Z,12.00
2018-06-29T23:32:38.938Z,13.77
2018-06-29T23:35:09.963Z,12.87
2018-06-29T23:37:40.720Z,10.37
2018-06-29T23:40:11.416Z,10.80
2018-06-29T23:42:42.154Z,14.00
2018-06-29T23:45:13.079Z,12.73
2018-06-29T23:47:44.553Z,12.80
2018-06-29T23:50:15.393Z,10.70
2018-06-29T23:52:46.059Z,11.00
2018-06-29T23:55:17.530Z,9.70
2018-06-29T23:57:48.363Z,10.13
